sensor_id;sensor_type;location;lat;lon;timestamp;pressure;altitude;pressure_sealevel;temperature;humidity
52927;BME280;40783;49.710;8.842;2023-07-31T00:00:29;99000.31;;;17.75;96.36
52927;BME280;40783;49.710;8.842;2023-07-31T00:02:54;98988.22;;;17.71;97.24
52927;BME280;40783;49.710;8.842;2023-07-31T00:05:19;98986.56;;;17.70;97.84
52927;BME280;40783;49.710;8.842;2023-07-31T00:07:47;98982.63;;;17.72;97.33
52927;BME280;40783;49.710;8.842;2023-07-31T00:10:12;98978.25;;;17.71;97.70
52927;BME280;40783;49.710;8.842;2023-07-31T00:12:38;98979.50;;;17.69;99.32
52927;BME280;40783;49.710;8.842;2023-07-31T00:15:03;98975.13;;;17.68;99.78
52927;BME280;40783;49.710;8.842;2023-07-31T00:17:29;98983.25;;;17.68;98.55
52927;BME280;40783;49.710;8.842;2023-07-31T00:19:57;98979.28;;;17.63;98.38
52927;BME280;40783;49.710;8.842;2023-07-31T00:22:22;98974.09;;;17.69;98.00
52927;BME280;40783;49.710;8.842;2023-07-31T00:24:50;98969.31;;;17.71;99.03
52927;BME280;40783;49.710;8.842;2023-07-31T00:27:15;98964.94;;;17.70;99.50
52927;BME280;40783;49.710;8.842;2023-07-31T00:29:40;98971.16;;;17.77;98.77
52927;BME280;40783;49.710;8.842;2023-07-31T00:32:05;98970.31;;;17.76;99.75
52927;BME280;40783;49.710;8.842;2023-07-31T00:34:31;98969.50;;;17.76;98.97
52927;BME280;40783;49.710;8.842;2023-07-31T00:36:56;98968.25;;;17.72;99.74
52927;BME280;40783;49.710;8.842;2023-07-31T00:39:21;98964.13;;;17.69;99.77
52927;BME280;40783;49.710;8.842;2023-07-31T00:41:46;98970.75;;;17.67;100.00
52927;BME280;40783;49.710;8.842;2023-07-31T00:44:12;98967.84;;;17.68;100.00
52927;BME280;40783;49.710;8.842;2023-07-31T00:46:37;98972.00;;;17.71;99.96
52927;BME280;40783;49.710;8.842;2023-07-31T00:49:04;98972.00;;;17.71;99.97
52927;BME280;40783;49.710;8.842;2023-07-31T00:51:32;98966.59;;;17.71;100.00
52927;BME280;40783;49.710;8.842;2023-07-31T00:54:00;98962.84;;;17.72;100.00
52927;BME280;40783;49.710;8.842;2023-07-31T00:56:29;98967.22;;;17.73;99.81
52927;BME280;40783;49.710;8.842;2023-07-31T00:58:54;98967.44;;;17.78;98.44
52927;BME280;40783;49.710;8.842;2023-07-31T01:01:20;98959.94;;;17.80;99.68
52927;BME280;40783;49.710;8.842;2023-07-31T01:03:47;98965.34;;;17.80;99.11
52927;BME280;40783;49.710;8.842;2023-07-31T01:11:25;98947.88;;;17.76;99.91
52927;BME280;40783;49.710;8.842;2023-07-31T01:13:55;98948.28;;;17.73;99.28
52927;BME280;40783;49.710;8.842;2023-07-31T01:16:20;98952.44;;;17.69;98.85
52927;BME280;40783;49.710;8.842;2023-07-31T01:18:45;98945.81;;;17.71;98.43
52927;BME280;40783;49.710;8.842;2023-07-31T01:26:12;98943.28;;;17.83;98.83
52927;BME280;40783;49.710;8.842;2023-07-31T01:31:20;98940.81;;;17.75;99.12
52927;BME280;40783;49.710;8.842;2023-07-31T01:33:47;98933.72;;;17.74;97.21
52927;BME280;40783;49.710;8.842;2023-07-31T01:36:15;98939.97;;;17.68;96.63
52927;BME280;40783;49.710;8.842;2023-07-31T01:38:41;98934.56;;;17.68;97.83
52927;BME280;40783;49.710;8.842;2023-07-31T01:41:08;98936.25;;;17.62;98.33
52927;BME280;40783;49.710;8.842;2023-07-31T01:43:34;98937.06;;;17.62;97.22
52927;BME280;40783;49.710;8.842;2023-07-31T01:46:01;98930.41;;;17.65;96.80
52927;BME280;40783;49.710;8.842;2023-07-31T01:48:29;98935.00;;;17.71;98.37
52927;BME280;40783;49.710;8.842;2023-07-31T01:51:00;98928.94;;;17.76;97.93
52927;BME280;40783;49.710;8.842;2023-07-31T01:53:26;98936.63;;;17.79;97.52
52927;BME280;40783;49.710;8.842;2023-07-31T01:55:51;98927.47;;;17.80;97.34
52927;BME280;40783;49.710;8.842;2023-07-31T01:58:16;98922.06;;;17.80;96.92
52927;BME280;40783;49.710;8.842;2023-07-31T02:00:41;98928.53;;;17.79;98.08
52927;BME280;40783;49.710;8.842;2023-07-31T02:03:11;98919.78;;;17.77;96.64
52927;BME280;40783;49.710;8.842;2023-07-31T02:05:36;98916.25;;;17.70;95.16
52927;BME280;40783;49.710;8.842;2023-07-31T02:08:02;98923.75;;;17.68;95.53
52927;BME280;40783;49.710;8.842;2023-07-31T02:10:27;98912.09;;;17.60;93.60
52927;BME280;40783;49.710;8.842;2023-07-31T02:12:54;98914.19;;;17.65;92.22
52927;BME280;40783;49.710;8.842;2023-07-31T02:15:19;98907.13;;;17.64;95.64
52927;BME280;40783;49.710;8.842;2023-07-31T02:17:46;98907.94;;;17.64;93.86
52927;BME280;40783;49.710;8.842;2023-07-31T02:20:11;98902.34;;;17.59;94.94
52927;BME280;40783;49.710;8.842;2023-07-31T02:22:36;98901.28;;;17.60;95.90
52927;BME280;40783;49.710;8.842;2023-07-31T02:25:01;98895.69;;;17.55;97.23
52927;BME280;40783;49.710;8.842;2023-07-31T02:27:29;98898.38;;;17.55;93.51
52927;BME280;40783;49.710;8.842;2023-07-31T02:29:54;98898.19;;;17.50;95.25
52927;BME280;40783;49.710;8.842;2023-07-31T02:32:20;98890.53;;;17.47;94.64
52927;BME280;40783;49.710;8.842;2023-07-31T02:34:45;98888.63;;;17.47;95.58
52927;BME280;40783;49.710;8.842;2023-07-31T02:37:10;98887.81;;;17.47;95.19
52927;BME280;40783;49.710;8.842;2023-07-31T02:39:38;98887.59;;;17.48;96.61
52927;BME280;40783;49.710;8.842;2023-07-31T02:42:03;98899.22;;;17.49;95.56
52927;BME280;40783;49.710;8.842;2023-07-31T02:44:28;98892.19;;;17.48;95.45
52927;BME280;40783;49.710;8.842;2023-07-31T02:46:56;98900.88;;;17.50;95.26
52927;BME280;40783;49.710;8.842;2023-07-31T02:49:24;98885.53;;;17.44;95.66
52927;BME280;40783;49.710;8.842;2023-07-31T02:51:49;98880.13;;;17.44;96.26
52927;BME280;40783;49.710;8.842;2023-07-31T02:54:14;98875.53;;;17.44;96.61
52927;BME280;40783;49.710;8.842;2023-07-31T02:56:39;98869.31;;;17.44;95.79
52927;BME280;40783;49.710;8.842;2023-07-31T02:59:04;98872.84;;;17.38;94.80
52927;BME280;40783;49.710;8.842;2023-07-31T03:01:34;98873.06;;;17.29;93.14
52927;BME280;40783;49.710;8.842;2023-07-31T03:04:02;98876.81;;;17.28;94.96
52927;BME280;40783;49.710;8.842;2023-07-31T03:06:28;98869.31;;;17.30;96.86
52927;BME280;40783;49.710;8.842;2023-07-31T03:08:55;98877.84;;;17.27;95.80
52927;BME280;40783;49.710;8.842;2023-07-31T03:11:20;98872.22;;;17.29;96.28
52927;BME280;40783;49.710;8.842;2023-07-31T03:13:45;98869.31;;;17.30;96.62
52927;BME280;40783;49.710;8.842;2023-07-31T03:16:11;98880.34;;;17.35;93.20
52927;BME280;40783;49.710;8.842;2023-07-31T03:18:38;98877.63;;;17.35;96.92
52927;BME280;40783;49.710;8.842;2023-07-31T03:21:04;98883.88;;;17.29;96.25
52927;BME280;40783;49.710;8.842;2023-07-31T03:23:29;98889.69;;;17.26;96.14
52927;BME280;40783;49.710;8.842;2023-07-31T03:25:57;98882.63;;;17.25;97.45
52927;BME280;40783;49.710;8.842;2023-07-31T03:28:22;98868.06;;;17.26;97.49
52927;BME280;40783;49.710;8.842;2023-07-31T03:30:47;98868.50;;;17.23;98.13
52927;BME280;40783;49.710;8.842;2023-07-31T03:33:13;98873.88;;;17.23;96.91
52927;BME280;40783;49.710;8.842;2023-07-31T03:35:40;98878.88;;;17.26;97.82
52927;BME280;40783;49.710;8.842;2023-07-31T03:38:05;98878.47;;;17.29;97.73
52927;BME280;40783;49.710;8.842;2023-07-31T03:40:31;98876.38;;;17.31;98.49
52927;BME280;40783;49.710;8.842;2023-07-31T03:42:56;98873.88;;;17.23;96.54
52927;BME280;40783;49.710;8.842;2023-07-31T03:45:21;98873.25;;;17.28;96.53
52927;BME280;40783;49.710;8.842;2023-07-31T03:47:46;98872.66;;;17.32;98.36
52927;BME280;40783;49.710;8.842;2023-07-31T03:50:11;98866.59;;;17.37;97.76
52927;BME280;40783;49.710;8.842;2023-07-31T03:52:39;98858.09;;;17.33;97.32
52927;BME280;40783;49.710;8.842;2023-07-31T03:55:04;98869.72;;;17.34;99.00
52927;BME280;40783;49.710;8.842;2023-07-31T03:57:29;98856.00;;;17.35;98.94
52927;BME280;40783;49.710;8.842;2023-07-31T03:59:57;98861.00;;;17.25;96.14
52927;BME280;40783;49.710;8.842;2023-07-31T04:02:25;98861.00;;;17.25;97.39
52927;BME280;40783;49.710;8.842;2023-07-31T04:04:50;98858.72;;;17.22;98.10
52927;BME280;40783;49.710;8.842;2023-07-31T04:07:17;98857.44;;;17.25;96.75
52927;BME280;40783;49.710;8.842;2023-07-31T04:09:43;98869.13;;;17.18;95.89
52927;BME280;40783;49.710;8.842;2023-07-31T04:12:08;98874.31;;;17.20;97.45
52927;BME280;40783;49.710;8.842;2023-07-31T04:14:33;98862.22;;;17.23;98.42
52927;BME280;40783;49.710;8.842;2023-07-31T04:16:58;98873.03;;;17.23;98.00
52927;BME280;40783;49.710;8.842;2023-07-31T04:19:24;98870.56;;;17.21;98.02
52927;BME280;40783;49.710;8.842;2023-07-31T04:21:49;98878.88;;;17.26;97.85
52927;BME280;40783;49.710;8.842;2023-07-31T04:24:16;98872.84;;;17.24;94.25
52927;BME280;40783;49.710;8.842;2023-07-31T04:26:49;98864.13;;;17.22;97.47
52927;BME280;40783;49.710;8.842;2023-07-31T04:29:14;98874.72;;;17.17;97.19
52927;BME280;40783;49.710;8.842;2023-07-31T04:31:39;98875.56;;;17.11;96.90
52927;BME280;40783;49.710;8.842;2023-07-31T04:34:04;98864.31;;;17.14;97.57
52927;BME280;40783;49.710;8.842;2023-07-31T04:36:29;98866.81;;;17.09;97.90
52927;BME280;40783;49.710;8.842;2023-07-31T04:38:55;98858.72;;;17.09;96.19
52927;BME280;40783;49.710;8.842;2023-07-31T04:41:20;98862.03;;;17.11;96.29
52927;BME280;40783;49.710;8.842;2023-07-31T04:43:46;98869.31;;;17.10;94.78
52927;BME280;40783;49.710;8.842;2023-07-31T04:46:11;98860.59;;;17.15;95.29
52927;BME280;40783;49.710;8.842;2023-07-31T04:48:36;98857.88;;;17.15;95.73
52927;BME280;40783;49.710;8.842;2023-07-31T04:51:02;98855.81;;;17.17;94.44
52927;BME280;40783;49.710;8.842;2023-07-31T04:53:27;98853.53;;;17.14;95.41
52927;BME280;40783;49.710;8.842;2023-07-31T04:55:54;98855.81;;;17.17;97.49
52927;BME280;40783;49.710;8.842;2023-07-31T04:58:20;98846.69;;;17.11;96.23
52927;BME280;40783;49.710;8.842;2023-07-31T05:00:47;98846.44;;;17.13;96.53
52927;BME280;40783;49.710;8.842;2023-07-31T05:03:15;98849.38;;;17.18;98.51
52927;BME280;40783;49.710;8.842;2023-07-31T05:05:40;98852.47;;;17.15;96.01
52927;BME280;40783;49.710;8.842;2023-07-31T05:08:05;98851.22;;;17.11;95.27
52927;BME280;40783;49.710;8.842;2023-07-31T05:10:30;98849.38;;;17.18;96.44
52927;BME280;40783;49.710;8.842;2023-07-31T05:12:56;98841.88;;;17.20;96.92
52927;BME280;40783;49.710;8.842;2023-07-31T05:15:21;98845.63;;;17.19;96.32
52927;BME280;40783;49.710;8.842;2023-07-31T05:17:51;98837.91;;;17.23;96.31
52927;BME280;40783;49.710;8.842;2023-07-31T05:20:16;98844.38;;;17.22;97.26
52927;BME280;40783;49.710;8.842;2023-07-31T05:22:42;98843.53;;;17.21;97.29
52927;BME280;40783;49.710;8.842;2023-07-31T05:25:09;98842.50;;;17.22;97.62
52927;BME280;40783;49.710;8.842;2023-07-31T05:27:37;98831.69;;;17.22;96.97
52927;BME280;40783;49.710;8.842;2023-07-31T05:30:02;98842.09;;;17.25;97.37
52927;BME280;40783;49.710;8.842;2023-07-31T05:32:27;98838.75;;;17.23;97.48
52927;BME280;40783;49.710;8.842;2023-07-31T05:34:52;98842.72;;;17.27;96.71
52927;BME280;40783;49.710;8.842;2023-07-31T05:37:18;98838.97;;;17.28;96.37
52927;BME280;40783;49.710;8.842;2023-07-31T05:39:43;98843.94;;;17.31;96.45
52927;BME280;40783;49.710;8.842;2023-07-31T05:42:09;98838.56;;;17.31;96.43
52927;BME280;40783;49.710;8.842;2023-07-31T05:44:34;98837.69;;;17.31;96.44
52927;BME280;40783;49.710;8.842;2023-07-31T05:46:59;98837.50;;;17.32;97.04
52927;BME280;40783;49.710;8.842;2023-07-31T05:49:24;98832.31;;;17.38;96.47
52927;BME280;40783;49.710;8.842;2023-07-31T05:51:52;98832.09;;;17.46;95.00
52927;BME280;40783;49.710;8.842;2023-07-31T05:54:17;98833.13;;;17.45;96.07
52927;BME280;40783;49.710;8.842;2023-07-31T05:56:42;98841.41;;;17.50;97.49
52927;BME280;40783;49.710;8.842;2023-07-31T05:59:11;98847.84;;;17.56;97.49
52927;BME280;40783;49.710;8.842;2023-07-31T06:01:37;98847.00;;;17.55;96.13
52927;BME280;40783;49.710;8.842;2023-07-31T06:04:02;98841.00;;;17.53;95.67
52927;BME280;40783;49.710;8.842;2023-07-31T06:06:28;98843.53;;;17.48;96.56
52927;BME280;40783;49.710;8.842;2023-07-31T06:08:53;98837.66;;;17.51;96.59
52927;BME280;40783;49.710;8.842;2023-07-31T06:11:21;98835.59;;;17.53;96.67
52927;BME280;40783;49.710;8.842;2023-07-31T06:13:46;98836.00;;;17.50;95.79
52927;BME280;40783;49.710;8.842;2023-07-31T06:16:13;98845.56;;;17.59;95.05
52927;BME280;40783;49.710;8.842;2023-07-31T06:18:38;98837.63;;;17.64;96.91
52927;BME280;40783;49.710;8.842;2023-07-31T06:21:05;98834.94;;;17.71;96.35
52927;BME280;40783;49.710;8.842;2023-07-31T06:23:31;98841.34;;;17.77;97.43
52927;BME280;40783;49.710;8.842;2023-07-31T06:25:58;98837.38;;;17.86;96.68
52927;BME280;40783;49.710;8.842;2023-07-31T06:28:27;98832.09;;;18.05;96.32
52927;BME280;40783;49.710;8.842;2023-07-31T06:30:53;98827.41;;;18.32;96.55
52927;BME280;40783;49.710;8.842;2023-07-31T06:33:18;98824.84;;;18.44;94.29
52927;BME280;40783;49.710;8.842;2023-07-31T06:35:43;98830.50;;;18.68;94.76
52927;BME280;40783;49.710;8.842;2023-07-31T06:38:08;98822.13;;;18.76;92.93
52927;BME280;40783;49.710;8.842;2023-07-31T06:40:34;98814.94;;;18.89;91.17
52927;BME280;40783;49.710;8.842;2023-07-31T06:42:59;98819.44;;;19.02;92.45
52927;BME280;40783;49.710;8.842;2023-07-31T06:45:32;98826.19;;;19.18;91.89
52927;BME280;40783;49.710;8.842;2023-07-31T06:47:57;98827.06;;;19.11;90.09
52927;BME280;40783;49.710;8.842;2023-07-31T06:50:26;98832.66;;;19.17;90.07
52927;BME280;40783;49.710;8.842;2023-07-31T06:52:56;98813.66;;;18.98;85.44
52927;BME280;40783;49.710;8.842;2023-07-31T06:55:21;98817.41;;;18.90;88.65
52927;BME280;40783;49.710;8.842;2023-07-31T06:57:47;98822.03;;;18.90;88.39
52927;BME280;40783;49.710;8.842;2023-07-31T07:00:13;98815.03;;;18.75;90.71
52927;BME280;40783;49.710;8.842;2023-07-31T07:02:38;98814.44;;;18.73;89.06
52927;BME280;40783;49.710;8.842;2023-07-31T07:05:06;98822.47;;;18.87;91.57
52927;BME280;40783;49.710;8.842;2023-07-31T07:07:32;98820.47;;;19.26;89.68
52927;BME280;40783;49.710;8.842;2023-07-31T07:09:59;98825.03;;;19.69;89.58
52927;BME280;40783;49.710;8.842;2023-07-31T07:12:25;98828.28;;;19.78;88.27
52927;BME280;40783;49.710;8.842;2023-07-31T07:14:50;98821.25;;;19.70;86.60
52927;BME280;40783;49.710;8.842;2023-07-31T07:17:15;98820.06;;;19.66;86.85
52927;BME280;40783;49.710;8.842;2023-07-31T07:19:40;98812.13;;;19.27;87.30
52927;BME280;40783;49.710;8.842;2023-07-31T07:22:08;98812.22;;;19.39;89.49
52927;BME280;40783;49.710;8.842;2023-07-31T07:24:33;98812.09;;;19.53;89.59
52927;BME280;40783;49.710;8.842;2023-07-31T07:26:58;98809.50;;;19.39;88.57
52927;BME280;40783;49.710;8.842;2023-07-31T07:29:24;98808.28;;;19.35;88.37
52927;BME280;40783;49.710;8.842;2023-07-31T07:31:51;98811.19;;;19.59;87.03
52927;BME280;40783;49.710;8.842;2023-07-31T07:34:19;98808.84;;;19.81;88.69
52927;BME280;40783;49.710;8.842;2023-07-31T07:36:44;98808.22;;;20.16;86.59
52927;BME280;40783;49.710;8.842;2023-07-31T07:39:10;98805.53;;;20.28;86.24
52927;BME280;40783;49.710;8.842;2023-07-31T07:41:35;98809.56;;;20.26;85.46
52927;BME280;40783;49.710;8.842;2023-07-31T07:44:00;98812.34;;;20.19;84.78
52927;BME280;40783;49.710;8.842;2023-07-31T07:46:28;98806.00;;;20.25;85.58
52927;BME280;40783;49.710;8.842;2023-07-31T07:48:53;98804.34;;;20.24;84.58
52927;BME280;40783;49.710;8.842;2023-07-31T07:51:18;98814.28;;;20.30;85.52
52927;BME280;40783;49.710;8.842;2023-07-31T07:53:46;98805.44;;;20.05;86.77
52927;BME280;40783;49.710;8.842;2023-07-31T07:56:11;98803.03;;;19.96;87.35
52927;BME280;40783;49.710;8.842;2023-07-31T07:58:36;98806.03;;;19.88;86.24
52927;BME280;40783;49.710;8.842;2023-07-31T08:01:04;98804.53;;;20.11;85.41
52927;BME280;40783;49.710;8.842;2023-07-31T08:03:31;98793.75;;;20.04;87.50
52927;BME280;40783;49.710;8.842;2023-07-31T08:05:59;98791.13;;;19.97;86.99
52927;BME280;40783;49.710;8.842;2023-07-31T08:08:24;98807.28;;;19.92;88.11
52927;BME280;40783;49.710;8.842;2023-07-31T08:10:49;98797.75;;;19.83;87.39
52927;BME280;40783;49.710;8.842;2023-07-31T08:13:17;98789.91;;;19.75;88.16
52927;BME280;40783;49.710;8.842;2023-07-31T08:15:42;98786.44;;;19.86;87.11
52927;BME280;40783;49.710;8.842;2023-07-31T08:18:08;98778.03;;;19.94;90.73
52927;BME280;40783;49.710;8.842;2023-07-31T08:20:35;98773.94;;;19.85;88.43
52927;BME280;40783;49.710;8.842;2023-07-31T08:23:00;98779.97;;;20.06;90.75
52927;BME280;40783;49.710;8.842;2023-07-31T08:25:26;98770.94;;;19.93;89.45
52927;BME280;40783;49.710;8.842;2023-07-31T08:27:51;98771.72;;;20.12;90.25
52927;BME280;40783;49.710;8.842;2023-07-31T08:30:19;98763.69;;;20.06;88.61
52927;BME280;40783;49.710;8.842;2023-07-31T08:32:44;98760.69;;;19.95;87.05
52927;BME280;40783;49.710;8.842;2023-07-31T08:35:09;98765.66;;;19.80;88.83
52927;BME280;40783;49.710;8.842;2023-07-31T08:37:37;98754.78;;;19.80;88.28
52927;BME280;40783;49.710;8.842;2023-07-31T08:40:03;98756.59;;;19.67;87.70
52927;BME280;40783;49.710;8.842;2023-07-31T08:42:28;98748.44;;;19.86;89.48
52927;BME280;40783;49.710;8.842;2023-07-31T08:44:53;98752.53;;;19.95;87.29
52927;BME280;40783;49.710;8.842;2023-07-31T08:47:22;98736.41;;;20.00;87.44
52927;BME280;40783;49.710;8.842;2023-07-31T08:49:48;98738.06;;;19.83;88.45
52927;BME280;40783;49.710;8.842;2023-07-31T08:52:14;98730.66;;;20.09;88.50
52927;BME280;40783;49.710;8.842;2023-07-31T08:54:39;98728.59;;;20.04;89.14
52927;BME280;40783;49.710;8.842;2023-07-31T08:57:05;98725.06;;;20.46;89.02
52927;BME280;40783;49.710;8.842;2023-07-31T08:59:31;98727.19;;;20.68;88.61
52927;BME280;40783;49.710;8.842;2023-07-31T09:01:58;98725.13;;;20.94;86.85
52927;BME280;40783;49.710;8.842;2023-07-31T09:04:26;98720.75;;;20.81;87.07
52927;BME280;40783;49.710;8.842;2023-07-31T09:06:55;98721.28;;;20.47;86.08
52927;BME280;40783;49.710;8.842;2023-07-31T09:09:22;98715.13;;;20.40;85.14
52927;BME280;40783;49.710;8.842;2023-07-31T09:11:49;98714.41;;;20.33;87.59
52927;BME280;40783;49.710;8.842;2023-07-31T09:14:14;98726.56;;;20.30;86.60
52927;BME280;40783;49.710;8.842;2023-07-31T09:19:35;98717.72;;;20.35;84.77
52927;BME280;40783;49.710;8.842;2023-07-31T09:22:04;98714.94;;;20.53;87.20
52927;BME280;40783;49.710;8.842;2023-07-31T09:24:32;98711.88;;;20.73;84.51
52927;BME280;40783;49.710;8.842;2023-07-31T09:27:01;98704.09;;;21.01;84.20
52927;BME280;40783;49.710;8.842;2023-07-31T09:29:27;98705.59;;;21.20;82.83
52927;BME280;40783;49.710;8.842;2023-07-31T09:31:53;98715.50;;;21.39;83.37
52927;BME280;40783;49.710;8.842;2023-07-31T09:34:27;98699.09;;;21.22;81.72
52927;BME280;40783;49.710;8.842;2023-07-31T09:36:53;98707.75;;;21.07;82.26
52927;BME280;40783;49.710;8.842;2023-07-31T09:39:18;98710.00;;;20.98;83.18
52927;BME280;40783;49.710;8.842;2023-07-31T09:41:53;98714.22;;;20.70;83.51
52927;BME280;40783;49.710;8.842;2023-07-31T09:44:18;98710.56;;;20.64;83.78
52927;BME280;40783;49.710;8.842;2023-07-31T09:46:43;98704.28;;;20.52;82.18
52927;BME280;40783;49.710;8.842;2023-07-31T09:51:34;98703.13;;;20.59;83.93
52927;BME280;40783;49.710;8.842;2023-07-31T09:54:03;98705.72;;;20.54;84.53
52927;BME280;40783;49.710;8.842;2023-07-31T09:56:31;98707.63;;;20.66;86.53
52927;BME280;40783;49.710;8.842;2023-07-31T09:58:57;98698.03;;;20.75;88.30
52927;BME280;40783;49.710;8.842;2023-07-31T10:01:22;98695.09;;;20.65;86.82
52927;BME280;40783;49.710;8.842;2023-07-31T10:03:47;98691.81;;;20.86;84.32
52927;BME280;40783;49.710;8.842;2023-07-31T10:06:13;98680.34;;;20.84;85.60
52927;BME280;40783;49.710;8.842;2023-07-31T10:08:40;98686.22;;;21.17;86.78
52927;BME280;40783;49.710;8.842;2023-07-31T10:11:10;98682.72;;;21.45;87.71
52927;BME280;40783;49.710;8.842;2023-07-31T10:13:36;98669.22;;;21.50;82.15
52927;BME280;40783;49.710;8.842;2023-07-31T10:16:01;98685.13;;;21.30;81.30
52927;BME280;40783;49.710;8.842;2023-07-31T10:18:27;98670.59;;;21.24;82.87
52927;BME280;40783;49.710;8.842;2023-07-31T10:20:53;98668.09;;;21.23;83.24
52927;BME280;40783;49.710;8.842;2023-07-31T10:23:19;98668.81;;;21.30;83.68
52927;BME280;40783;49.710;8.842;2023-07-31T10:25:47;98672.09;;;21.32;84.25
52927;BME280;40783;49.710;8.842;2023-07-31T10:28:13;98673.75;;;21.33;80.80
52927;BME280;40783;49.710;8.842;2023-07-31T10:30:39;98668.25;;;21.16;80.17
52927;BME280;40783;49.710;8.842;2023-07-31T10:33:05;98670.03;;;21.10;79.92
52927;BME280;40783;49.710;8.842;2023-07-31T10:35:30;98665.91;;;21.19;80.46
52927;BME280;40783;49.710;8.842;2023-07-31T10:37:55;98669.09;;;21.16;80.76
52927;BME280;40783;49.710;8.842;2023-07-31T10:40:36;98667.28;;;21.22;82.54
52927;BME280;40783;49.710;8.842;2023-07-31T10:43:02;98659.16;;;21.10;82.67
52927;BME280;40783;49.710;8.842;2023-07-31T10:45:34;98666.44;;;21.22;83.17
52927;BME280;40783;49.710;8.842;2023-07-31T10:48:06;98650.84;;;21.29;81.64
52927;BME280;40783;49.710;8.842;2023-07-31T10:50:33;98658.97;;;21.41;83.42
52927;BME280;40783;49.710;8.842;2023-07-31T10:53:01;98656.69;;;21.49;82.66
52927;BME280;40783;49.710;8.842;2023-07-31T10:57:54;98644.34;;;21.59;85.54
52927;BME280;40783;49.710;8.842;2023-07-31T11:08:17;98647.16;;;21.76;79.55
52927;BME280;40783;49.710;8.842;2023-07-31T11:10:45;98648.16;;;21.87;80.14
52927;BME280;40783;49.710;8.842;2023-07-31T11:13:12;98653.47;;;21.93;80.11
52927;BME280;40783;49.710;8.842;2023-07-31T11:15:40;98643.28;;;21.89;80.94
52927;BME280;40783;49.710;8.842;2023-07-31T11:18:08;98638.81;;;21.83;81.65
52927;BME280;40783;49.710;8.842;2023-07-31T11:20:36;98635.41;;;21.75;78.62
52927;BME280;40783;49.710;8.842;2023-07-31T11:23:03;98631.88;;;21.75;77.84
52927;BME280;40783;49.710;8.842;2023-07-31T11:25:31;98649.47;;;21.84;80.12
52927;BME280;40783;49.710;8.842;2023-07-31T11:27:57;98639.16;;;21.86;79.91
52927;BME280;40783;49.710;8.842;2023-07-31T11:30:25;98633.88;;;21.79;78.82
52927;BME280;40783;49.710;8.842;2023-07-31T11:32:50;98629.59;;;21.84;76.15
52927;BME280;40783;49.710;8.842;2023-07-31T11:35:17;98629.78;;;21.94;80.72
52927;BME280;40783;49.710;8.842;2023-07-31T11:37:42;98622.19;;;21.96;85.65
52927;BME280;40783;49.710;8.842;2023-07-31T11:40:08;98631.41;;;21.95;83.66
52927;BME280;40783;49.710;8.842;2023-07-31T11:42:36;98633.25;;;21.89;82.67
52927;BME280;40783;49.710;8.842;2023-07-31T11:45:07;98626.25;;;21.64;87.71
52927;BME280;40783;49.710;8.842;2023-07-31T11:47:34;98637.06;;;21.47;90.54
52927;BME280;40783;49.710;8.842;2023-07-31T11:50:00;98621.22;;;21.15;92.30
52927;BME280;40783;49.710;8.842;2023-07-31T11:52:28;98617.81;;;21.08;93.19
52927;BME280;40783;49.710;8.842;2023-07-31T11:54:56;98614.03;;;21.09;93.79
52927;BME280;40783;49.710;8.842;2023-07-31T11:57:22;98610.94;;;21.17;96.56
52927;BME280;40783;49.710;8.842;2023-07-31T11:59:48;98608.69;;;21.43;98.23
52927;BME280;40783;49.710;8.842;2023-07-31T12:02:13;98619.09;;;21.46;93.39
52927;BME280;40783;49.710;8.842;2023-07-31T12:04:39;98608.09;;;21.41;84.94
52927;BME280;40783;49.710;8.842;2023-07-31T12:07:06;98603.09;;;21.50;90.28
52927;BME280;40783;49.710;8.842;2023-07-31T12:09:31;98605.69;;;21.57;89.37
52927;BME280;40783;49.710;8.842;2023-07-31T12:11:57;98600.03;;;21.75;93.15
52927;BME280;40783;49.710;8.842;2023-07-31T12:14:25;98598.09;;;21.88;87.02
52927;BME280;40783;49.710;8.842;2023-07-31T12:16:58;98591.66;;;21.94;91.36
52927;BME280;40783;49.710;8.842;2023-07-31T12:19:26;98587.78;;;22.07;86.28
52927;BME280;40783;49.710;8.842;2023-07-31T12:22:01;98589.50;;;21.96;85.36
52927;BME280;40783;49.710;8.842;2023-07-31T12:24:28;98591.44;;;21.96;83.08
52927;BME280;40783;49.710;8.842;2023-07-31T12:26:54;98571.13;;;21.86;78.91
52927;BME280;40783;49.710;8.842;2023-07-31T12:29:21;98563.28;;;21.90;81.37
52927;BME280;40783;49.710;8.842;2023-07-31T12:31:46;98568.06;;;21.83;84.09
52927;BME280;40783;49.710;8.842;2023-07-31T12:34:18;98569.38;;;21.97;83.37
52927;BME280;40783;49.710;8.842;2023-07-31T12:36:45;98573.09;;;22.08;84.53
52927;BME280;40783;49.710;8.842;2023-07-31T12:39:10;98563.63;;;22.11;80.46
52927;BME280;40783;49.710;8.842;2023-07-31T12:41:35;98569.06;;;22.11;75.84
52927;BME280;40783;49.710;8.842;2023-07-31T12:44:01;98566.41;;;22.16;79.83
52927;BME280;40783;49.710;8.842;2023-07-31T12:46:29;98557.19;;;22.17;83.13
52927;BME280;40783;49.710;8.842;2023-07-31T12:48:54;98558.91;;;22.23;78.50
52927;BME280;40783;49.710;8.842;2023-07-31T12:51:21;98567.22;;;22.33;81.60
52927;BME280;40783;49.710;8.842;2023-07-31T12:53:47;98559.44;;;22.42;78.30
52927;BME280;40783;49.710;8.842;2023-07-31T12:56:12;98553.66;;;22.56;78.79
52927;BME280;40783;49.710;8.842;2023-07-31T12:58:40;98559.16;;;22.61;82.27
52927;BME280;40783;49.710;8.842;2023-07-31T13:01:05;98553.63;;;22.73;78.46
52927;BME280;40783;49.710;8.842;2023-07-31T13:03:31;98550.31;;;22.71;79.51
52927;BME280;40783;49.710;8.842;2023-07-31T13:05:56;98544.91;;;22.53;78.24
52927;BME280;40783;49.710;8.842;2023-07-31T13:08:22;98541.19;;;22.43;77.69
52927;BME280;40783;49.710;8.842;2023-07-31T13:10:47;98534.28;;;22.52;78.89
52927;BME280;40783;49.710;8.842;2023-07-31T13:13:12;98532.69;;;22.56;79.75
52927;BME280;40783;49.710;8.842;2023-07-31T13:15:39;98527.81;;;22.58;78.67
52927;BME280;40783;49.710;8.842;2023-07-31T13:18:05;98534.78;;;22.49;78.39
52927;BME280;40783;49.710;8.842;2023-07-31T13:20:30;98528.25;;;22.50;75.75
52927;BME280;40783;49.710;8.842;2023-07-31T13:22:58;98536.34;;;22.45;74.95